sensor_id;sensor_type;location;lat;lon;timestamp;P1;durP1;ratioP1;P2;durP2;ratioP2
7659;SDS011;3872;47.902;8.162;2023-04-24T00:02:28;4.50;;;0.70;;
7659;SDS011;3872;47.902;8.162;2023-04-24T00:05:08;11.33;;;1.03;;
7659;SDS011;3872;47.902;8.162;2023-04-24T00:07:41;4.00;;;1.00;;
7659;SDS011;3872;47.902;8.162;2023-04-24T00:10:13;3.40;;;0.80;;
7659;SDS011;3872;47.902;8.162;2023-04-24T00:12:46;3.30;;;0.70;;
7659;SDS011;3872;47.902;8.162;2023-04-24T00:15:18;3.60;;;0.70;;
7659;SDS011;3872;47.902;8.162;2023-04-24T00:17:49;4.00;;;1.00;;
7659;SDS011;3872;47.902;8.162;2023-04-24T00:20:20;3.30;;;0.70;;
7659;SDS011;3872;47.902;8.162;2023-04-24T00:22:55;3.40;;;0.70;;
7659;SDS011;3872;47.902;8.162;2023-04-24T00:25:29;5.87;;;2.50;;
7659;SDS011;3872;47.902;8.162;2023-04-24T00:27:59;4.60;;;0.83;;
7659;SDS011;3872;47.902;8.162;2023-04-24T00:30:32;4.77;;;0.80;;
7659;SDS011;3872;47.902;8.162;2023-04-24T00:33:06;3.30;;;0.63;;
7659;SDS011;3872;47.902;8.162;2023-04-24T00:35:41;8.03;;;0.67;;
7659;SDS011;3872;47.902;8.162;2023-04-24T00:38:18;3.30;;;0.67;;
7659;SDS011;3872;47.902;8.162;2023-04-24T00:40:51;6.50;;;0.70;;
7659;SDS011;3872;47.902;8.162;2023-04-24T00:43:27;4.23;;;0.80;;
7659;SDS011;3872;47.902;8.162;2023-04-24T00:46:00;4.00;;;1.13;;
7659;SDS011;3872;47.902;8.162;2023-04-24T00:48:38;4.17;;;0.80;;
7659;SDS011;3872;47.902;8.162;2023-04-24T00:51:17;5.73;;;0.70;;
7659;SDS011;3872;47.902;8.162;2023-04-24T00:53:56;3.70;;;0.80;;
7659;SDS011;3872;47.902;8.162;2023-04-24T00:56:29;4.23;;;0.90;;
7659;SDS011;3872;47.902;8.162;2023-04-24T00:59:03;5.97;;;0.90;;
7659;SDS011;3872;47.902;8.162;2023-04-24T01:01:34;5.87;;;0.70;;
7659;SDS011;3872;47.902;8.162;2023-04-24T01:04:11;3.20;;;0.60;;
7659;SDS011;3872;47.902;8.162;2023-04-24T01:06:45;3.37;;;0.70;;
7659;SDS011;3872;47.902;8.162;2023-04-24T01:09:18;4.80;;;0.77;;
7659;SDS011;3872;47.902;8.162;2023-04-24T01:12:00;3.37;;;0.70;;
7659;SDS011;3872;47.902;8.162;2023-04-24T01:14:37;3.50;;;0.70;;
7659;SDS011;3872;47.902;8.162;2023-04-24T01:17:15;3.30;;;0.60;;
7659;SDS011;3872;47.902;8.162;2023-04-24T01:19:50;3.60;;;0.70;;
7659;SDS011;3872;47.902;8.162;2023-04-24T01:22:28;3.60;;;0.73;;
7659;SDS011;3872;47.902;8.162;2023-04-24T01:25:02;3.40;;;0.60;;
7659;SDS011;3872;47.902;8.162;2023-04-24T01:27:37;3.50;;;0.70;;
7659;SDS011;3872;47.902;8.162;2023-04-24T01:30:11;3.70;;;0.60;;
7659;SDS011;3872;47.902;8.162;2023-04-24T01:32:44;3.37;;;0.70;;
7659;SDS011;3872;47.902;8.162;2023-04-24T01:35:17;3.23;;;0.60;;
7659;SDS011;3872;47.902;8.162;2023-04-24T01:37:53;3.30;;;0.60;;
7659;SDS011;3872;47.902;8.162;2023-04-24T01:40:29;3.50;;;0.70;;
7659;SDS011;3872;47.902;8.162;2023-04-24T01:43:01;3.30;;;0.60;;
7659;SDS011;3872;47.902;8.162;2023-04-24T01:45:32;4.00;;;0.80;;
7659;SDS011;3872;47.902;8.162;2023-04-24T01:48:17;4.53;;;0.60;;
7659;SDS011;3872;47.902;8.162;2023-04-24T01:50:47;3.27;;;0.70;;
7659;SDS011;3872;47.902;8.162;2023-04-24T01:53:22;4.10;;;0.80;;
7659;SDS011;3872;47.902;8.162;2023-04-24T01:55:57;3.97;;;0.90;;
7659;SDS011;3872;47.902;8.162;2023-04-24T01:58:29;3.47;;;0.73;;
7659;SDS011;3872;47.902;8.162;2023-04-24T02:01:02;3.30;;;0.70;;
7659;SDS011;3872;47.902;8.162;2023-04-24T02:03:32;3.40;;;0.70;;
7659;SDS011;3872;47.902;8.162;2023-04-24T02:06:03;3.30;;;0.60;;
7659;SDS011;3872;47.902;8.162;2023-04-24T02:08:37;4.63;;;0.60;;
7659;SDS011;3872;47.902;8.162;2023-04-24T02:11:16;3.77;;;0.60;;
7659;SDS011;3872;47.902;8.162;2023-04-24T02:13:52;3.20;;;0.60;;
7659;SDS011;3872;47.902;8.162;2023-04-24T02:16:22;3.33;;;0.70;;
7659;SDS011;3872;47.902;8.162;2023-04-24T02:18:52;3.60;;;0.77;;
7659;SDS011;3872;47.902;8.162;2023-04-24T02:21:21;3.40;;;0.60;;
7659;SDS011;3872;47.902;8.162;2023-04-24T02:23:53;5.20;;;0.70;;
7659;SDS011;3872;47.902;8.162;2023-04-24T02:26:26;3.40;;;0.70;;
7659;SDS011;3872;47.902;8.162;2023-04-24T02:28:58;3.30;;;0.60;;
7659;SDS011;3872;47.902;8.162;2023-04-24T02:31:28;3.30;;;0.73;;
7659;SDS011;3872;47.902;8.162;2023-04-24T02:33:57;7.70;;;0.83;;
7659;SDS011;3872;47.902;8.162;2023-04-24T02:36:31;3.30;;;0.70;;
7659;SDS011;3872;47.902;8.162;2023-04-24T02:39:05;3.37;;;0.70;;
7659;SDS011;3872;47.902;8.162;2023-04-24T02:41:35;3.40;;;0.77;;
7659;SDS011;3872;47.902;8.162;2023-04-24T02:44:05;4.23;;;0.80;;
7659;SDS011;3872;47.902;8.162;2023-04-24T02:46:36;3.43;;;0.70;;
7659;SDS011;3872;47.902;8.162;2023-04-24T02:49:16;4.33;;;0.70;;
7659;SDS011;3872;47.902;8.162;2023-04-24T02:51:48;3.50;;;0.70;;
7659;SDS011;3872;47.902;8.162;2023-04-24T02:54:20;4.13;;;1.00;;
7659;SDS011;3872;47.902;8.162;2023-04-24T02:56:52;3.97;;;0.70;;
7659;SDS011;3872;47.902;8.162;2023-04-24T02:59:24;4.23;;;0.70;;
7659;SDS011;3872;47.902;8.162;2023-04-24T03:01:57;3.40;;;0.70;;
7659;SDS011;3872;47.902;8.162;2023-04-24T03:04:32;3.80;;;0.63;;
7659;SDS011;3872;47.902;8.162;2023-04-24T03:07:07;3.50;;;0.70;;
7659;SDS011;3872;47.902;8.162;2023-04-24T03:09:41;3.30;;;0.60;;
7659;SDS011;3872;47.902;8.162;2023-04-24T03:12:16;3.40;;;0.60;;
7659;SDS011;3872;47.902;8.162;2023-04-24T03:14:46;5.83;;;0.70;;
7659;SDS011;3872;47.902;8.162;2023-04-24T03:17:17;3.37;;;0.60;;
7659;SDS011;3872;47.902;8.162;2023-04-24T03:19:47;3.50;;;0.70;;
7659;SDS011;3872;47.902;8.162;2023-04-24T03:22:20;3.50;;;0.70;;
7659;SDS011;3872;47.902;8.162;2023-04-24T03:24:54;3.27;;;0.60;;
7659;SDS011;3872;47.902;8.162;2023-04-24T03:27:23;4.57;;;0.80;;
7659;SDS011;3872;47.902;8.162;2023-04-24T03:29:55;3.23;;;0.60;;
7659;SDS011;3872;47.902;8.162;2023-04-24T03:32:45;3.33;;;0.70;;
7659;SDS011;3872;47.902;8.162;2023-04-24T03:35:25;3.30;;;0.60;;
7659;SDS011;3872;47.902;8.162;2023-04-24T03:38:01;3.50;;;0.80;;
7659;SDS011;3872;47.902;8.162;2023-04-24T03:40:56;3.50;;;0.60;;
7659;SDS011;3872;47.902;8.162;2023-04-24T03:43:46;5.40;;;0.90;;
7659;SDS011;3872;47.902;8.162;2023-04-24T03:46:21;3.27;;;0.60;;
7659;SDS011;3872;47.902;8.162;2023-04-24T03:48:57;3.37;;;0.60;;
7659;SDS011;3872;47.902;8.162;2023-04-24T03:51:37;3.30;;;0.70;;
7659;SDS011;3872;47.902;8.162;2023-04-24T03:54:36;3.27;;;0.60;;
7659;SDS011;3872;47.902;8.162;2023-04-24T04:00:19;3.93;;;0.70;;
7659;SDS011;3872;47.902;8.162;2023-04-24T04:03:03;3.83;;;0.70;;
7659;SDS011;3872;47.902;8.162;2023-04-24T04:05:30;4.37;;;0.60;;
7659;SDS011;3872;47.902;8.162;2023-04-24T04:07:56;5.50;;;0.80;;
7659;SDS011;3872;47.902;8.162;2023-04-24T04:10:23;3.23;;;0.60;;
7659;SDS011;3872;47.902;8.162;2023-04-24T04:12:51;3.30;;;0.70;;
7659;SDS011;3872;47.902;8.162;2023-04-24T04:15:18;3.27;;;0.60;;
7659;SDS011;3872;47.902;8.162;2023-04-24T04:17:44;3.30;;;0.60;;
7659;SDS011;3872;47.902;8.162;2023-04-24T04:20:11;3.30;;;0.70;;
7659;SDS011;3872;47.902;8.162;2023-04-24T04:22:39;3.50;;;0.80;;
7659;SDS011;3872;47.902;8.162;2023-04-24T04:25:08;3.47;;;0.90;;
7659;SDS011;3872;47.902;8.162;2023-04-24T04:27:35;3.60;;;0.90;;
7659;SDS011;3872;47.902;8.162;2023-04-24T04:30:09;4.20;;;0.90;;
7659;SDS011;3872;47.902;8.162;2023-04-24T04:32:45;3.83;;;1.00;;
7659;SDS011;3872;47.902;8.162;2023-04-24T04:35:12;6.27;;;1.00;;
7659;SDS011;3872;47.902;8.162;2023-04-24T04:37:39;4.20;;;1.30;;
7659;SDS011;3872;47.902;8.162;2023-04-24T04:40:17;3.87;;;1.10;;
7659;SDS011;3872;47.902;8.162;2023-04-24T04:42:56;3.70;;;1.20;;
7659;SDS011;3872;47.902;8.162;2023-04-24T04:45:26;4.07;;;1.40;;
7659;SDS011;3872;47.902;8.162;2023-04-24T04:48:20;4.20;;;1.20;;
7659;SDS011;3872;47.902;8.162;2023-04-24T04:50:48;3.63;;;1.30;;
7659;SDS011;3872;47.902;8.162;2023-04-24T04:53:15;4.03;;;1.23;;
7659;SDS011;3872;47.902;8.162;2023-04-24T04:55:42;3.90;;;1.53;;
7659;SDS011;3872;47.902;8.162;2023-04-24T04:58:12;3.40;;;0.97;;
7659;SDS011;3872;47.902;8.162;2023-04-24T05:00:40;7.47;;;1.77;;
7659;SDS011;3872;47.902;8.162;2023-04-24T05:03:30;4.43;;;1.30;;
7659;SDS011;3872;47.902;8.162;2023-04-24T05:06:04;5.50;;;1.90;;
7659;SDS011;3872;47.902;8.162;2023-04-24T05:08:34;4.10;;;1.90;;
7659;SDS011;3872;47.902;8.162;2023-04-24T05:11:02;5.57;;;1.57;;
7659;SDS011;3872;47.902;8.162;2023-04-24T05:13:30;5.43;;;1.80;;
7659;SDS011;3872;47.902;8.162;2023-04-24T05:15:59;3.80;;;1.60;;
7659;SDS011;3872;47.902;8.162;2023-04-24T05:18:27;3.47;;;1.10;;
7659;SDS011;3872;47.902;8.162;2023-04-24T05:20:53;3.70;;;1.20;;
7659;SDS011;3872;47.902;8.162;2023-04-24T05:23:20;6.47;;;1.90;;
7659;SDS011;3872;47.902;8.162;2023-04-24T05:25:50;5.30;;;1.63;;
7659;SDS011;3872;47.902;8.162;2023-04-24T05:28:18;5.40;;;1.50;;
7659;SDS011;3872;47.902;8.162;2023-04-24T05:30:52;4.70;;;1.53;;
7659;SDS011;3872;47.902;8.162;2023-04-24T05:33:21;3.80;;;1.30;;
7659;SDS011;3872;47.902;8.162;2023-04-24T05:35:48;6.03;;;1.70;;
7659;SDS011;3872;47.902;8.162;2023-04-24T05:38:14;3.93;;;1.53;;
7659;SDS011;3872;47.902;8.162;2023-04-24T05:40:43;5.30;;;1.27;;
7659;SDS011;3872;47.902;8.162;2023-04-24T05:43:09;3.70;;;1.30;;
7659;SDS011;3872;47.902;8.162;2023-04-24T05:45:36;10.63;;;1.53;;
7659;SDS011;3872;47.902;8.162;2023-04-24T05:48:02;3.87;;;1.57;;
7659;SDS011;3872;47.902;8.162;2023-04-24T05:50:30;3.63;;;1.10;;
7659;SDS011;3872;47.902;8.162;2023-04-24T05:52:57;4.17;;;1.17;;
7659;SDS011;3872;47.902;8.162;2023-04-24T05:55:28;4.20;;;1.10;;
7659;SDS011;3872;47.902;8.162;2023-04-24T05:57:56;3.83;;;1.40;;
7659;SDS011;3872;47.902;8.162;2023-04-24T06:00:24;4.87;;;1.50;;
7659;SDS011;3872;47.902;8.162;2023-04-24T06:02:59;5.50;;;1.60;;
7659;SDS011;3872;47.902;8.162;2023-04-24T06:05:26;5.23;;;1.43;;
7659;SDS011;3872;47.902;8.162;2023-04-24T06:07:54;4.30;;;1.60;;
7659;SDS011;3872;47.902;8.162;2023-04-24T06:10:23;4.03;;;1.30;;
7659;SDS011;3872;47.902;8.162;2023-04-24T06:12:50;4.37;;;1.73;;
7659;SDS011;3872;47.902;8.162;2023-04-24T06:15:17;3.60;;;1.47;;
7659;SDS011;3872;47.902;8.162;2023-04-24T06:17:54;4.50;;;1.87;;
7659;SDS011;3872;47.902;8.162;2023-04-24T06:20:20;4.10;;;1.57;;
7659;SDS011;3872;47.902;8.162;2023-04-24T06:22:47;3.80;;;1.07;;
7659;SDS011;3872;47.902;8.162;2023-04-24T06:25:15;4.50;;;1.13;;
7659;SDS011;3872;47.902;8.162;2023-04-24T06:27:42;4.37;;;1.50;;
7659;SDS011;3872;47.902;8.162;2023-04-24T06:30:09;8.00;;;1.40;;
7659;SDS011;3872;47.902;8.162;2023-04-24T06:32:36;5.73;;;1.63;;
7659;SDS011;3872;47.902;8.162;2023-04-24T06:35:03;3.70;;;1.40;;
7659;SDS011;3872;47.902;8.162;2023-04-24T06:37:31;11.90;;;1.70;;
7659;SDS011;3872;47.902;8.162;2023-04-24T06:39:58;4.97;;;1.40;;
7659;SDS011;3872;47.902;8.162;2023-04-24T06:42:26;3.90;;;1.50;;
7659;SDS011;3872;47.902;8.162;2023-04-24T06:44:54;4.60;;;1.57;;
7659;SDS011;3872;47.902;8.162;2023-04-24T06:47:21;5.80;;;1.23;;
7659;SDS011;3872;47.902;8.162;2023-04-24T06:49:47;4.30;;;1.40;;
7659;SDS011;3872;47.902;8.162;2023-04-24T06:52:16;4.67;;;1.23;;
7659;SDS011;3872;47.902;8.162;2023-04-24T06:54:42;3.90;;;1.57;;
7659;SDS011;3872;47.902;8.162;2023-04-24T06:57:09;3.90;;;1.50;;
7659;SDS011;3872;47.902;8.162;2023-04-24T06:59:37;9.70;;;1.20;;
7659;SDS011;3872;47.902;8.162;2023-04-24T07:02:04;3.90;;;1.53;;
7659;SDS011;3872;47.902;8.162;2023-04-24T07:04:31;4.83;;;1.53;;
7659;SDS011;3872;47.902;8.162;2023-04-24T07:06:57;5.40;;;1.60;;
7659;SDS011;3872;47.902;8.162;2023-04-24T07:09:24;4.27;;;1.40;;
7659;SDS011;3872;47.902;8.162;2023-04-24T07:11:52;6.17;;;1.37;;
7659;SDS011;3872;47.902;8.162;2023-04-24T07:14:19;4.30;;;1.27;;
7659;SDS011;3872;47.902;8.162;2023-04-24T07:16:47;4.47;;;1.37;;
7659;SDS011;3872;47.902;8.162;2023-04-24T07:19:13;7.13;;;1.43;;
7659;SDS011;3872;47.902;8.162;2023-04-24T07:21:40;6.73;;;2.17;;
7659;SDS011;3872;47.902;8.162;2023-04-24T07:24:07;3.77;;;1.33;;
7659;SDS011;3872;47.902;8.162;2023-04-24T07:26:36;4.87;;;1.60;;
7659;SDS011;3872;47.902;8.162;2023-04-24T07:29:03;3.80;;;1.57;;
7659;SDS011;3872;47.902;8.162;2023-04-24T07:31:30;3.77;;;1.33;;
7659;SDS011;3872;47.902;8.162;2023-04-24T07:33:58;4.20;;;1.53;;
7659;SDS011;3872;47.902;8.162;2023-04-24T07:36:25;3.67;;;1.33;;
7659;SDS011;3872;47.902;8.162;2023-04-24T07:38:53;5.43;;;1.50;;
7659;SDS011;3872;47.902;8.162;2023-04-24T07:41:20;3.77;;;1.53;;
7659;SDS011;3872;47.902;8.162;2023-04-24T07:43:47;4.93;;;1.60;;
7659;SDS011;3872;47.902;8.162;2023-04-24T07:46:13;5.27;;;1.53;;
7659;SDS011;3872;47.902;8.162;2023-04-24T07:48:40;5.57;;;1.43;;
7659;SDS011;3872;47.902;8.162;2023-04-24T07:51:08;4.00;;;1.40;;
7659;SDS011;3872;47.902;8.162;2023-04-24T07:53:35;4.40;;;1.37;;
7659;SDS011;3872;47.902;8.162;2023-04-24T07:56:01;5.13;;;1.60;;
7659;SDS011;3872;47.902;8.162;2023-04-24T07:58:28;6.00;;;1.70;;
7659;SDS011;3872;47.902;8.162;2023-04-24T08:00:54;6.60;;;1.37;;
7659;SDS011;3872;47.902;8.162;2023-04-24T08:03:21;5.37;;;1.67;;
7659;SDS011;3872;47.902;8.162;2023-04-24T08:05:47;4.23;;;1.70;;
7659;SDS011;3872;47.902;8.162;2023-04-24T08:08:17;4.80;;;1.37;;
7659;SDS011;3872;47.902;8.162;2023-04-24T08:10:43;3.83;;;1.70;;
7659;SDS011;3872;47.902;8.162;2023-04-24T08:13:10;4.63;;;1.40;;
7659;SDS011;3872;47.902;8.162;2023-04-24T08:15:37;5.43;;;1.40;;
7659;SDS011;3872;47.902;8.162;2023-04-24T08:18:04;4.00;;;1.43;;
7659;SDS011;3872;47.902;8.162;2023-04-24T08:20:30;4.10;;;1.50;;
7659;SDS011;3872;47.902;8.162;2023-04-24T08:22:57;5.00;;;1.60;;
7659;SDS011;3872;47.902;8.162;2023-04-24T08:25:25;9.90;;;1.47;;
7659;SDS011;3872;47.902;8.162;2023-04-24T08:27:51;3.87;;;1.20;;
7659;SDS011;3872;47.902;8.162;2023-04-24T08:30:18;6.27;;;1.20;;
7659;SDS011;3872;47.902;8.162;2023-04-24T08:32:45;6.53;;;1.53;;
7659;SDS011;3872;47.902;8.162;2023-04-24T08:35:12;5.87;;;1.50;;
7659;SDS011;3872;47.902;8.162;2023-04-24T08:37:38;3.80;;;1.40;;
7659;SDS011;3872;47.902;8.162;2023-04-24T08:40:06;9.63;;;1.50;;
7659;SDS011;3872;47.902;8.162;2023-04-24T08:42:42;8.00;;;1.93;;
7659;SDS011;3872;47.902;8.162;2023-04-24T08:45:10;3.93;;;1.23;;
7659;SDS011;3872;47.902;8.162;2023-04-24T08:47:37;3.83;;;1.43;;
7659;SDS011;3872;47.902;8.162;2023-04-24T08:50:05;4.60;;;1.50;;
7659;SDS011;3872;47.902;8.162;2023-04-24T08:52:33;3.70;;;1.30;;
7659;SDS011;3872;47.902;8.162;2023-04-24T08:55:00;3.87;;;1.27;;
7659;SDS011;3872;47.902;8.162;2023-04-24T08:57:27;3.80;;;1.40;;
7659;SDS011;3872;47.902;8.162;2023-04-24T08:59:56;7.03;;;1.83;;
7659;SDS011;3872;47.902;8.162;2023-04-24T09:02:26;4.00;;;1.63;;
7659;SDS011;3872;47.902;8.162;2023-04-24T09:04:52;4.17;;;1.40;;
7659;SDS011;3872;47.902;8.162;2023-04-24T09:07:19;5.90;;;1.53;;
7659;SDS011;3872;47.902;8.162;2023-04-24T09:09:48;4.90;;;1.67;;
7659;SDS011;3872;47.902;8.162;2023-04-24T09:12:16;5.40;;;1.57;;
7659;SDS011;3872;47.902;8.162;2023-04-24T09:14:43;5.00;;;1.50;;
7659;SDS011;3872;47.902;8.162;2023-04-24T09:17:11;5.50;;;1.87;;
7659;SDS011;3872;47.902;8.162;2023-04-24T09:19:38;4.37;;;1.60;;
7659;SDS011;3872;47.902;8.162;2023-04-24T09:22:05;5.07;;;1.87;;
7659;SDS011;3872;47.902;8.162;2023-04-24T09:24:33;6.93;;;1.80;;
7659;SDS011;3872;47.902;8.162;2023-04-24T09:27:00;9.83;;;1.87;;
7659;SDS011;3872;47.902;8.162;2023-04-24T09:29:27;4.87;;;1.47;;
7659;SDS011;3872;47.902;8.162;2023-04-24T09:31:54;3.90;;;1.40;;
7659;SDS011;3872;47.902;8.162;2023-04-24T09:34:23;5.73;;;1.40;;
7659;SDS011;3872;47.902;8.162;2023-04-24T09:36:51;4.20;;;1.57;;
7659;SDS011;3872;47.902;8.162;2023-04-24T09:39:18;5.10;;;1.93;;
7659;SDS011;3872;47.902;8.162;2023-04-24T09:41:46;4.60;;;1.50;;
7659;SDS011;3872;47.902;8.162;2023-04-24T09:44:14;12.83;;;2.20;;
7659;SDS011;3872;47.902;8.162;2023-04-24T09:46:42;5.83;;;2.00;;
7659;SDS011;3872;47.902;8.162;2023-04-24T09:49:11;5.00;;;1.53;;
7659;SDS011;3872;47.902;8.162;2023-04-24T09:51:41;4.07;;;1.37;;
7659;SDS011;3872;47.902;8.162;2023-04-24T09:54:13;4.10;;;1.43;;
7659;SDS011;3872;47.902;8.162;2023-04-24T09:56:42;8.50;;;1.60;;
7659;SDS011;3872;47.902;8.162;2023-04-24T09:59:11;7.13;;;1.77;;
7659;SDS011;3872;47.902;8.162;2023-04-24T10:01:37;4.43;;;1.47;;
7659;SDS011;3872;47.902;8.162;2023-04-24T10:04:14;3.70;;;1.50;;
7659;SDS011;3872;47.902;8.162;2023-04-24T10:06:43;5.00;;;1.53;;
7659;SDS011;3872;47.902;8.162;2023-04-24T10:09:10;6.87;;;1.90;;
7659;SDS011;3872;47.902;8.162;2023-04-24T10:11:37;5.43;;;1.53;;
7659;SDS011;3872;47.902;8.162;2023-04-24T10:14:08;4.00;;;1.70;;
7659;SDS011;3872;47.902;8.162;2023-04-24T10:16:36;5.93;;;1.90;;
7659;SDS011;3872;47.902;8.162;2023-04-24T10:19:03;5.10;;;1.53;;
7659;SDS011;3872;47.902;8.162;2023-04-24T10:21:30;4.43;;;1.67;;
7659;SDS011;3872;47.902;8.162;2023-04-24T10:23:59;6.90;;;1.93;;
7659;SDS011;3872;47.902;8.162;2023-04-24T10:26:28;4.03;;;1.40;;
7659;SDS011;3872;47.902;8.162;2023-04-24T10:28:56;3.53;;;1.23;;
7659;SDS011;3872;47.902;8.162;2023-04-24T10:31:24;5.37;;;1.53;;
7659;SDS011;3872;47.902;8.162;2023-04-24T10:33:52;4.23;;;1.60;;
7659;SDS011;3872;47.902;8.162;2023-04-24T10:36:21;4.20;;;1.80;;
7659;SDS011;3872;47.902;8.162;2023-04-24T10:38:51;4.67;;;1.57;;
7659;SDS011;3872;47.902;8.162;2023-04-24T10:41:22;3.70;;;1.50;;
7659;SDS011;3872;47.902;8.162;2023-04-24T10:44:03;4.40;;;1.63;;
7659;SDS011;3872;47.902;8.162;2023-04-24T10:46:33;5.20;;;1.80;;
7659;SDS011;3872;47.902;8.162;2023-04-24T10:48:59;3.93;;;1.57;;
7659;SDS011;3872;47.902;8.162;2023-04-24T10:54:23;3.60;;;1.40;;
7659;SDS011;3872;47.902;8.162;2023-04-24T10:56:53;5.50;;;1.60;;
7659;SDS011;3872;47.902;8.162;2023-04-24T11:02:56;5.37;;;1.60;;
7659;SDS011;3872;47.902;8.162;2023-04-24T11:05:48;4.40;;;1.90;;
7659;SDS011;3872;47.902;8.162;2023-04-24T11:08:26;5.83;;;2.10;;
7659;SDS011;3872;47.902;8.162;2023-04-24T11:11:02;6.43;;;1.50;;
7659;SDS011;3872;47.902;8.162;2023-04-24T11:16:33;4.47;;;1.30;;
7659;SDS011;3872;47.902;8.162;2023-04-24T11:19:09;4.33;;;1.57;;
7659;SDS011;3872;47.902;8.162;2023-04-24T11:21:46;3.83;;;1.20;;
7659;SDS011;3872;47.902;8.162;2023-04-24T11:24:32;4.63;;;1.33;;
7659;SDS011;3872;47.902;8.162;2023-04-24T11:27:05;3.60;;;1.20;;
7659;SDS011;3872;47.902;8.162;2023-04-24T11:29:40;5.00;;;1.30;;
7659;SDS011;3872;47.902;8.162;2023-04-24T11:32:14;3.50;;;0.90;;
7659;SDS011;3872;47.902;8.162;2023-04-24T11:34:45;7.30;;;1.10;;
7659;SDS011;3872;47.902;8.162;2023-04-24T11:37:13;6.20;;;1.10;;
7659;SDS011;3872;47.902;8.162;2023-04-24T11:39:40;4.73;;;1.10;;
7659;SDS011;3872;47.902;8.162;2023-04-24T11:42:06;4.30;;;1.60;;
7659;SDS011;3872;47.902;8.162;2023-04-24T11:44:33;10.10;;;1.27;;
7659;SDS011;3872;47.902;8.162;2023-04-24T11:47:02;4.10;;;1.00;;
7659;SDS011;3872;47.902;8.162;2023-04-24T11:49:28;6.00;;;1.70;;
7659;SDS011;3872;47.902;8.162;2023-04-24T11:51:55;4.80;;;1.33;;
7659;SDS011;3872;47.902;8.162;2023-04-24T11:54:23;3.90;;;1.53;;
7659;SDS011;3872;47.902;8.162;2023-04-24T11:56:49;4.87;;;1.33;;
7659;SDS011;3872;47.902;8.162;2023-04-24T11:59:16;3.60;;;1.20;;
7659;SDS011;3872;47.902;8.162;2023-04-24T12:01:43;5.90;;;1.50;;
7659;SDS011;3872;47.902;8.162;2023-04-24T12:04:10;4.30;;;1.20;;
7659;SDS011;3872;47.902;8.162;2023-04-24T12:06:37;3.70;;;1.27;;
7659;SDS011;3872;47.902;8.162;2023-04-24T12:09:04;4.00;;;1.53;;
7659;SDS011;3872;47.902;8.162;2023-04-24T12:11:32;4.47;;;1.30;;
7659;SDS011;3872;47.902;8.162;2023-04-24T12:14:09;6.20;;;2.80;;
7659;SDS011;3872;47.902;8.162;2023-04-24T12:16:36;3.90;;;1.67;;
7659;SDS011;3872;47.902;8.162;2023-04-24T12:19:03;7.87;;;1.40;;
7659;SDS011;3872;47.902;8.162;2023-04-24T12:21:31;8.07;;;4.93;;
7659;SDS011;3872;47.902;8.162;2023-04-24T12:23:57;4.30;;;1.60;;
7659;SDS011;3872;47.902;8.162;2023-04-24T12:26:24;4.60;;;1.57;;
7659;SDS011;3872;47.902;8.162;2023-04-24T12:28:52;6.50;;;1.50;;
7659;SDS011;3872;47.902;8.162;2023-04-24T12:31:20;3.67;;;1.30;;
7659;SDS011;3872;47.902;8.162;2023-04-24T12:33:47;3.47;;;1.00;;
7659;SDS011;3872;47.902;8.162;2023-04-24T12:36:14;4.03;;;1.57;;
7659;SDS011;3872;47.902;8.162;2023-04-24T12:38:42;5.20;;;2.80;;
7659;SDS011;3872;47.902;8.162;2023-04-24T12:41:12;6.67;;;2.83;;
7659;SDS011;3872;47.902;8.162;2023-04-24T12:43:50;5.47;;;1.90;;
7659;SDS011;3872;47.902;8.162;2023-04-24T12:46:18;4.43;;;1.43;;
7659;SDS011;3872;47.902;8.162;2023-04-24T12:48:45;5.07;;;2.30;;
7659;SDS011;3872;47.902;8.162;2023-04-24T12:51:11;4.90;;;1.53;;
7659;SDS011;3872;47.902;8.162;2023-04-24T12:53:38;7.27;;;1.50;;
7659;SDS011;3872;47.902;8.162;2023-04-24T12:56:05;4.00;;;2.03;;
7659;SDS011;3872;47.902;8.162;2023-04-24T12:58:31;3.83;;;1.40;;
7659;SDS011;3872;47.902;8.162;2023-04-24T13:00:58;5.23;;;2.00;;
7659;SDS011;3872;47.902;8.162;2023-04-24T13:03:27;5.13;;;1.57;;
7659;SDS011;3872;47.902;8.162;2023-04-24T13:05:53;5.40;;;1.77;;
7659;SDS011;3872;47.902;8.162;2023-04-24T13:08:20;4.57;;;1.40;;
7659;SDS011;3872;47.902;8.162;2023-04-24T13:10:46;4.17;;;1.50;;
7659;SDS011;3872;47.902;8.162;2023-04-24T13:13:13;6.70;;;1.57;;
7659;SDS011;3872;47.902;8.162;2023-04-24T13:15:40;6.73;;;1.77;;
7659;SDS011;3872;47.902;8.162;2023-04-24T13:18:06;4.00;;;1.40;;
7659;SDS011;3872;47.902;8.162;2023-04-24T13:20:34;4.30;;;1.40;;
7659;SDS011;3872;47.902;8.162;2023-04-24T13:23:01;5.03;;;1.67;;
7659;SDS011;3872;47.902;8.162;2023-04-24T13:25:30;3.93;;;1.43;;
7659;SDS011;3872;47.902;8.162;2023-04-24T13:28:00;5.30;;;1.20;;
7659;SDS011;3872;47.902;8.162;2023-04-24T13:30:27;4.30;;;1.90;;
7659;SDS011;3872;47.902;8.162;2023-04-24T13:32:53;4.17;;;1.53;;
7659;SDS011;3872;47.902;8.162;2023-04-24T13:35:20;4.10;;;1.70;;
7659;SDS011;3872;47.902;8.162;2023-04-24T13:37:48;4.57;;;1.60;;
7659;SDS011;3872;47.902;8.162;2023-04-24T13:40:14;17.43;;;2.03;;
7659;SDS011;3872;47.902;8.162;2023-04-24T13:42:41;8.23;;;1.33;;
7659;SDS011;3872;47.902;8.162;2023-04-24T13:45:09;3.70;;;1.40;;
7659;SDS011;3872;47.902;8.162;2023-04-24T13:47:36;3.83;;;1.30;;
7659;SDS011;3872;47.902;8.162;2023-04-24T13:50:06;4.10;;;1.47;;
7659;SDS011;3872;47.902;8.162;2023-04-24T13:52:33;4.03;;;1.57;;
7659;SDS011;3872;47.902;8.162;2023-04-24T13:55:02;6.00;;;1.77;;
7659;SDS011;3872;47.902;8.162;2023-04-24T13:57:29;7.60;;;1.77;;
7659;SDS011;3872;47.902;8.162;2023-04-24T13:59:56;9.10;;;3.77;;
7659;SDS011;3872;47.902;8.162;2023-04-24T14:02:26;13.03;;;5.30;;
7659;SDS011;3872;47.902;8.162;2023-04-24T14:04:52;7.23;;;2.20;;
7659;SDS011;3872;47.902;8.162;2023-04-24T14:07:19;4.93;;;2.43;;
7659;SDS011;3872;47.902;8.162;2023-04-24T14:09:45;4.67;;;1.50;;
7659;SDS011;3872;47.902;8.162;2023-04-24T14:12:13;4.27;;;2.53;;
7659;SDS011;3872;47.902;8.162;2023-04-24T14:14:41;6.67;;;3.33;;
7659;SDS011;3872;47.902;8.162;2023-04-24T14:17:08;4.23;;;1.80;;
7659;SDS011;3872;47.902;8.162;2023-04-24T14:19:35;3.70;;;1.27;;
7659;SDS011;3872;47.902;8.162;2023-04-24T14:22:01;6.00;;;2.10;;
7659;SDS011;3872;47.902;8.162;2023-04-24T14:24:28;5.90;;;1.70;;
7659;SDS011;3872;47.902;8.162;2023-04-24T14:26:55;4.80;;;2.07;;
7659;SDS011;3872;47.902;8.162;2023-04-24T14:29:23;5.13;;;2.07;;
7659;SDS011;3872;47.902;8.162;2023-04-24T14:31:50;5.40;;;2.30;;
7659;SDS011;3872;47.902;8.162;2023-04-24T14:34:17;4.13;;;1.47;;
7659;SDS011;3872;47.902;8.162;2023-04-24T14:36:44;4.50;;;1.60;;
7659;SDS011;3872;47.902;8.162;2023-04-24T14:39:11;4.53;;;1.30;;
7659;SDS011;3872;47.902;8.162;2023-04-24T14:41:37;4.60;;;1.30;;
7659;SDS011;3872;47.902;8.162;2023-04-24T14:44:04;3.90;;;1.60;;
7659;SDS011;3872;47.902;8.162;2023-04-24T14:46:32;4.57;;;1.40;;
7659;SDS011;3872;47.902;8.162;2023-04-24T14:48:59;4.70;;;1.60;;
7659;SDS011;3872;47.902;8.162;2023-04-24T14:51:25;4.40;;;1.63;;
7659;SDS011;3872;47.902;8.162;2023-04-24T14:53:52;5.80;;;1.80;;
7659;SDS011;3872;47.902;8.162;2023-04-24T14:56:18;5.30;;;1.50;;
7659;SDS011;3872;47.902;8.162;2023-04-24T14:58:45;4.13;;;1.83;;
7659;SDS011;3872;47.902;8.162;2023-04-24T15:01:12;4.20;;;1.70;;
7659;SDS011;3872;47.902;8.162;2023-04-24T15:03:40;4.53;;;1.50;;
7659;SDS011;3872;47.902;8.162;2023-04-24T15:06:06;4.37;;;1.70;;
7659;SDS011;3872;47.902;8.162;2023-04-24T15:08:33;4.10;;;1.20;;
7659;SDS011;3872;47.902;8.162;2023-04-24T15:10:59;4.97;;;1.40;;
7659;SDS011;3872;47.902;8.162;2023-04-24T15:13:26;4.67;;;1.73;;
7659;SDS011;3872;47.902;8.162;2023-04-24T15:15:53;4.03;;;1.73;;
7659;SDS011;3872;47.902;8.162;2023-04-24T15:18:19;4.10;;;1.60;;
7659;SDS011;3872;47.902;8.162;2023-04-24T15:20:47;4.47;;;1.57;;
7659;SDS011;3872;47.902;8.162;2023-04-24T15:23:14;3.67;;;1.60;;
7659;SDS011;3872;47.902;8.162;2023-04-24T15:25:40;5.50;;;1.63;;
7659;SDS011;3872;47.902;8.162;2023-04-24T15:28:07;7.50;;;1.70;;
7659;SDS011;3872;47.902;8.162;2023-04-24T15:30:33;4.67;;;1.97;;
7659;SDS011;3872;47.902;8.162;2023-04-24T15:33:00;4.00;;;1.97;;
7659;SDS011;3872;47.902;8.162;2023-04-24T15:35:27;4.40;;;1.63;;
7659;SDS011;3872;47.902;8.162;2023-04-24T15:37:55;6.17;;;2.00;;
7659;SDS011;3872;47.902;8.162;2023-04-24T15:40:21;4.37;;;2.30;;
7659;SDS011;3872;47.902;8.162;2023-04-24T15:42:48;3.70;;;1.50;;
7659;SDS011;3872;47.902;8.162;2023-04-24T15:45:15;7.77;;;1.57;;